Time,TemperatureF,DewpointF,PressureIn,WindDirection,WindDirectionDegrees,WindSpeedMPH,WindSpeedGustMPH,Humidity,HourlyPrecipIn,Conditions,Clouds,dailyrainin,SoftwareType,DateUTC
2013-02-14 00:26:00,30.2,29.2,26.50,West,268,5.0,13.0,96,0.00,,,-99.99,VWS V12.07,2013-02-14 05:26:00,
2013-02-14 00:56:00,30.3,28.8,26.52,SW,223,3.0,13.0,94,0.00,,,-99.99,VWS V12.07,2013-02-14 05:56:00,
2013-02-14 01:27:00,30.2,28.2,26.52,SSW,208,10.0,13.0,92,0.00,,,-99.99,VWS V12.07,2013-02-14 06:27:00,
2013-02-14 01:57:00,29.8,27.8,26.52,South,190,10.0,11.0,92,0.00,,,-99.99,VWS V12.07,2013-02-14 06:57:00,
2013-02-14 02:26:00,29.3,26.7,26.53,SW,219,10.0,11.0,90,0.00,,,-99.99,VWS V12.07,2013-02-14 07:26:00,
2013-02-14 02:56:00,29.0,26.4,26.53,SSE,150,8.0,21.0,90,0.00,,,-99.99,VWS V12.07,2013-02-14 07:56:00,
2013-02-14 03:26:00,28.9,25.8,26.55,SW,221,9.0,22.0,88,0.00,,,-99.99,VWS V12.07,2013-02-14 08:26:00,
2013-02-14 03:56:00,28.4,25.6,26.54,SW,214,14.0,15.0,89,0.00,,,-99.99,VWS V12.07,2013-02-14 08:56:00,
2013-02-14 04:26:00,28.0,24.9,26.54,WSW,252,8.0,10.0,88,0.00,,,-99.99,VWS V12.07,2013-02-14 09:26:00,
2013-02-14 04:56:00,27.6,24.8,26.55,SW,218,0.0,12.0,89,0.00,,,-99.99,VWS V12.07,2013-02-14 09:56:00,
2013-02-14 05:26:00,27.2,24.4,26.55,SW,224,7.0,13.0,89,0.00,,,-99.99,VWS V12.07,2013-02-14 10:26:00,
2013-02-14 05:56:00,26.6,23.8,26.56,SW,228,0.0,0.0,89,0.00,,,-99.99,VWS V12.07,2013-02-14 10:56:00,
2013-02-14 06:26:00,26.3,23.5,26.57,SSW,208,0.0,0.0,89,0.00,,,-99.99,VWS V12.07,2013-02-14 11:26:00,
2013-02-14 06:56:00,26.0,23.2,26.58,SW,232,0.0,0.0,89,0.00,,,-99.99,VWS V12.07,2013-02-14 11:56:00,
2013-02-14 07:26:00,25.9,23.4,26.60,SW,221,0.0,0.0,90,0.00,,,-99.99,VWS V12.07,2013-02-14 12:26:00,
2013-02-14 07:56:00,26.6,24.1,26.62,SW,215,0.0,30.0,90,0.00,,,-99.99,VWS V12.07,2013-02-14 12:56:00,
2013-02-14 08:26:00,27.4,24.6,26.66,SW,214,0.0,0.0,89,0.00,,,-99.99,VWS V12.07,2013-02-14 13:26:00,
2013-02-14 08:56:00,28.6,25.2,26.65,SW,227,0.0,0.0,87,0.00,,,-99.99,VWS V12.07,2013-02-14 13:56:00,
2013-02-14 09:26:00,30.5,26.2,26.66,SW,218,0.0,0.0,84,0.00,,,-99.99,VWS V12.07,2013-02-14 14:26:00,
2013-02-14 09:56:00,33.4,27.9,26.66,West,269,17.0,22.0,80,0.00,,,-99.99,VWS V12.07,2013-02-14 14:56:00,
2013-02-14 10:26:00,35.5,29.6,26.66,SSW,195,9.0,53.0,79,0.00,,,-99.99,VWS V12.07,2013-02-14 15:26:00,
2013-02-14 10:56:00,37.3,30.4,26.66,SSW,194,2.0,5.0,76,0.00,,,-99.99,VWS V12.07,2013-02-14 15:56:00,
2013-02-14 11:26:00,39.5,27.2,26.65,South,178,0.0,0.0,61,0.00,,,-99.99,VWS V12.07,2013-02-14 16:26:00,
2013-02-14 11:56:00,40.8,30.0,26.66,SW,220,2.0,8.0,65,0.00,,,-99.99,VWS V12.07,2013-02-14 16:56:00,
2013-02-14 12:26:00,42.5,33.1,26.65,South,183,0.0,16.0,69,0.01,,,-99.99,VWS V12.07,2013-02-14 17:26:00,
2013-02-14 12:56:00,43.7,31.5,26.65,South,179,0.0,0.0,62,0.01,,,-99.99,VWS V12.07,2013-02-14 17:56:00,
2013-02-14 13:26:00,44.7,31.3,26.63,SSW,210,0.0,0.0,59,0.00,,,-99.99,VWS V12.07,2013-02-14 18:26:00,
2013-02-14 13:56:00,45.3,32.7,26.62,SW,227,34.0,52.0,61,0.00,,,-99.99,VWS V12.07,2013-02-14 18:56:00,
2013-02-14 14:26:00,46.4,30.7,26.60,South,188,0.0,0.0,54,0.00,,,-99.99,VWS V12.07,2013-02-14 19:26:00,
2013-02-14 14:56:00,47.0,30.8,26.61,WSW,243,0.0,0.0,53,0.00,,,-99.99,VWS V12.07,2013-02-14 19:56:00,
2013-02-14 15:26:00,45.5,28.4,26.63,West,279,0.0,0.0,51,0.00,,,-99.99,VWS V12.07,2013-02-14 20:26:00,
2013-02-14 15:56:00,45.4,28.8,26.62,SW,223,0.0,0.0,52,0.00,,,-99.99,VWS V12.07,2013-02-14 20:56:00,
2013-02-14 16:26:00,44.6,28.5,26.64,West,265,0.0,0.0,53,0.00,,,-99.99,VWS V12.07,2013-02-14 21:26:00,
2013-02-14 16:56:00,43.9,28.4,26.64,WNW,293,0.0,0.0,54,0.00,,,-99.99,VWS V12.07,2013-02-14 21:56:00,
2013-02-14 17:26:00,42.9,26.5,26.65,SW,222,0.0,0.0,52,0.00,,,-99.99,VWS V12.07,2013-02-14 22:26:00,
2013-02-14 17:56:00,40.6,27.4,26.65,West,276,0.0,0.0,59,0.00,,,-99.99,VWS V12.07,2013-02-14 22:56:00,
2013-02-14 18:26:00,39.5,27.6,26.65,SSW,200,0.0,0.0,62,0.00,,,-99.99,VWS V12.07,2013-02-14 23:26:00,
2013-02-14 18:56:00,38.1,28.1,26.66,WSW,243,0.0,0.0,67,0.00,,,-99.99,VWS V12.07,2013-02-14 23:56:00,
2013-02-14 19:26:00,37.2,28.0,26.65,SW,225,0.0,0.0,69,0.00,,,-99.99,VWS V12.07,2013-02-15 00:26:00,
2013-02-14 19:57:00,36.9,28.4,26.66,SW,217,0.0,0.0,71,0.00,,,-99.99,VWS V12.07,2013-02-15 00:57:00,
2013-02-14 20:26:00,36.5,28.7,26.65,SSW,194,0.0,0.0,73,0.00,,,-99.99,VWS V12.07,2013-02-15 01:26:00,
2013-02-14 20:56:00,36.2,29.0,26.65,SW,223,0.0,0.0,75,0.00,,,-99.99,VWS V12.07,2013-02-15 01:56:00,
2013-02-14 21:27:00,35.9,29.1,26.66,SW,216,0.0,0.0,76,0.00,,,-99.99,VWS V12.07,2013-02-15 02:27:00,
2013-02-14 21:57:00,35.5,29.0,26.67,South,177,0.0,0.0,77,0.00,,,-99.99,VWS V12.07,2013-02-15 02:57:00,
2013-02-14 22:26:00,35.0,28.9,26.68,WSW,241,0.0,0.0,78,0.00,,,-99.99,VWS V12.07,2013-02-15 03:26:00,
2013-02-14 22:56:00,32.5,27.3,26.69,SW,223,0.0,0.0,81,0.00,,,-99.99,VWS V12.07,2013-02-15 03:56:00,
2013-02-14 23:27:00,30.7,26.7,26.69,SW,223,0.0,0.0,85,0.00,,,-99.99,VWS V12.07,2013-02-15 04:27:00,
2013-02-14 23:57:00,31.1,27.1,26.69,SW,223,0.0,0.0,85,0.00,,,-99.99,VWS V12.07,2013-02-15 04:57:00,